Time,TemperatureF,DewpointF,PressureIn,WindDirection,WindDirectionDegrees,WindSpeedMPH,WindSpeedGustMPH,Humidity,HourlyPrecipIn,Conditions,Clouds,dailyrainin,SolarRadiationWatts/m^2,SoftwareType,DateUTC
2014-09-17 00:04:00,47.9,46.3,30.10,East,84,0.0,0.0,94,0.00,,,0.00,0,Wunderground v.1.15,2014-09-17 04:04:00,
2014-09-17 00:08:00,47.7,46.1,30.10,East,84,0.0,0.0,94,0.00,,,0.00,0,Wunderground v.1.15,2014-09-17 04:08:00,
2014-09-17 00:13:00,47.5,45.9,30.10,East,84,0.0,0.0,94,0.00,,,0.00,0,Wunderground v.1.15,2014-09-17 04:13:00,
2014-09-17 00:18:00,47.3,45.7,30.10,East,84,0.0,0.0,94,0.00,,,0.00,0,Wunderground v.1.15,2014-09-17 04:18:00,
2014-09-17 00:23:00,47.2,45.6,30.10,East,84,0.0,0.0,94,0.00,,,0.00,0,Wunderground v.1.15,2014-09-17 04:23:00,
2014-09-17 00:28:00,47.1,45.5,30.10,East,84,0.0,0.0,94,0.00,,,0.00,0,Wunderground v.1.15,2014-09-17 04:28:00,
2014-09-17 00:33:00,47.0,45.4,30.09,East,84,0.0,0.0,94,0.00,,,0.00,0,Wunderground v.1.15,2014-09-17 04:33:00,
2014-09-17 00:39:00,46.8,45.2,30.09,East,84,0.0,0.0,94,0.00,,,0.00,0,Wunderground v.1.15,2014-09-17 04:39:00,
2014-09-17 00:44:00,46.6,45.0,30.09,East,84,0.0,0.0,94,0.00,,,0.00,0,Wunderground v.1.15,2014-09-17 04:44:00,
2014-09-17 00:48:00,46.4,44.8,30.09,East,84,0.0,0.0,94,0.00,,,0.00,0,Wunderground v.1.15,2014-09-17 04:48:00,
2014-09-17 00:53:00,46.3,44.7,30.09,East,84,0.0,0.0,94,0.00,,,0.00,0,Wunderground v.1.15,2014-09-17 04:53:00,
2014-09-17 00:59:00,46.3,44.9,30.09,East,84,0.0,0.0,95,0.00,,,0.00,0,Wunderground v.1.15,2014-09-17 04:59:00,
2014-09-17 01:08:00,45.9,44.3,30.09,East,84,0.0,0.0,94,0.00,,,0.00,0,Wunderground v.1.15,2014-09-17 05:08:00,
2014-09-17 01:14:00,45.8,44.2,30.09,East,84,0.0,0.0,94,0.00,,,0.00,0,Wunderground v.1.15,2014-09-17 05:14:00,
2014-09-17 01:19:00,45.7,44.4,30.09,East,84,0.0,0.0,95,0.00,,,0.00,0,Wunderground v.1.15,2014-09-17 05:19:00,
2014-09-17 01:24:00,45.6,44.3,30.09,East,84,0.0,0.0,95,0.00,,,0.00,0,Wunderground v.1.15,2014-09-17 05:24:00,
2014-09-17 01:28:00,45.6,44.3,30.09,East,84,0.0,0.0,95,0.00,,,0.00,0,Wunderground v.1.15,2014-09-17 05:28:00,
2014-09-17 01:33:00,45.5,44.2,30.09,East,84,0.0,0.0,95,0.00,,,0.00,0,Wunderground v.1.15,2014-09-17 05:33:00,
2014-09-17 01:38:00,45.4,44.1,30.09,East,84,0.0,0.0,95,0.00,,,0.00,0,Wunderground v.1.15,2014-09-17 05:38:00,
2014-09-17 01:43:00,45.2,43.9,30.09,East,84,0.0,0.0,95,0.00,,,0.00,0,Wunderground v.1.15,2014-09-17 05:43:00,
2014-09-17 01:48:00,45.2,43.9,30.09,East,84,0.0,0.0,95,0.00,,,0.00,0,Wunderground v.1.15,2014-09-17 05:48:00,
2014-09-17 01:54:00,45.3,44.0,30.09,East,84,0.0,0.0,95,0.00,,,0.00,0,Wunderground v.1.15,2014-09-17 05:54:00,
2014-09-17 01:59:00,45.4,44.1,30.09,East,84,0.0,0.0,95,0.00,,,0.00,0,Wunderground v.1.15,2014-09-17 05:59:00,
2014-09-17 02:03:00,45.4,44.1,30.09,East,84,0.0,0.0,95,0.00,,,0.00,0,Wunderground v.1.15,2014-09-17 06:03:00,
2014-09-17 02:08:00,45.4,44.3,30.09,East,84,0.0,0.0,96,0.00,,,0.00,0,Wunderground v.1.15,2014-09-17 06:08:00,
2014-09-17 02:13:00,45.5,44.2,30.09,East,84,0.0,0.0,95,0.00,,,0.00,0,Wunderground v.1.15,2014-09-17 06:13:00,
2014-09-17 02:18:00,45.4,44.1,30.09,East,84,0.0,0.0,95,0.00,,,0.00,0,Wunderground v.1.15,2014-09-17 06:18:00,
2014-09-17 02:23:00,45.4,44.1,30.09,East,84,0.0,0.0,95,0.00,,,0.00,0,Wunderground v.1.15,2014-09-17 06:23:00,
2014-09-17 02:28:00,45.2,43.9,30.09,East,84,0.0,0.0,95,0.00,,,0.00,0,Wunderground v.1.15,2014-09-17 06:28:00,
2014-09-17 02:34:00,45.1,43.8,30.09,East,84,0.0,0.0,95,0.00,,,0.00,0,Wunderground v.1.15,2014-09-17 06:34:00,
2014-09-17 02:39:00,44.9,43.6,30.09,East,84,0.0,0.0,95,0.00,,,0.00,0,Wunderground v.1.15,2014-09-17 06:39:00,
2014-09-17 02:44:00,45.0,43.9,30.09,East,84,0.0,0.0,96,0.00,,,0.00,0,Wunderground v.1.15,2014-09-17 06:44:00,
2014-09-17 02:48:00,44.8,43.5,30.09,East,84,0.0,0.0,95,0.00,,,0.00,0,Wunderground v.1.15,2014-09-17 06:48:00,
2014-09-17 02:53:00,44.6,43.3,30.09,East,84,0.0,0.0,95,0.00,,,0.00,0,Wunderground v.1.15,2014-09-17 06:53:00,
2014-09-17 02:59:00,44.4,43.1,30.09,East,84,0.0,0.0,95,0.00,,,0.00,0,Wunderground v.1.15,2014-09-17 06:59:00,
2014-09-17 03:09:00,43.9,42.6,30.09,East,84,0.0,0.0,95,0.00,,,0.00,0,Wunderground v.1.15,2014-09-17 07:09:00,
2014-09-17 03:14:00,43.7,42.4,30.09,East,84,0.0,0.0,95,0.00,,,0.00,0,Wunderground v.1.15,2014-09-17 07:14:00,
2014-09-17 03:19:00,43.6,42.3,30.08,East,84,0.0,0.0,95,0.00,,,0.00,0,Wunderground v.1.15,2014-09-17 07:19:00,
2014-09-17 03:28:00,43.4,42.1,30.08,East,84,0.0,0.0,95,0.00,,,0.00,0,Wunderground v.1.15,2014-09-17 07:28:00,
2014-09-17 03:33:00,43.4,42.3,30.08,East,84,0.0,0.0,96,0.00,,,0.00,0,Wunderground v.1.15,2014-09-17 07:33:00,
2014-09-17 03:38:00,43.5,42.4,30.08,East,84,0.0,0.0,96,0.00,,,0.00,0,Wunderground v.1.15,2014-09-17 07:38:00,
2014-09-17 03:43:00,43.3,42.0,30.08,East,84,0.0,0.0,95,0.00,,,0.00,0,Wunderground v.1.15,2014-09-17 07:43:00,
2014-09-17 03:49:00,43.2,42.1,30.08,East,84,0.0,0.0,96,0.00,,,0.00,0,Wunderground v.1.15,2014-09-17 07:49:00,
2014-09-17 03:54:00,43.1,42.0,30.08,East,84,0.0,0.0,96,0.00,,,0.00,0,Wunderground v.1.15,2014-09-17 07:54:00,
2014-09-17 03:59:00,42.9,41.6,30.08,East,84,0.0,0.0,95,0.00,,,0.00,0,Wunderground v.1.15,2014-09-17 07:59:00,
2014-09-17 04:03:00,42.8,41.5,30.08,East,84,0.0,0.0,95,0.00,,,0.00,0,Wunderground v.1.15,2014-09-17 08:03:00,
2014-09-17 04:08:00,42.6,41.3,30.08,East,84,0.0,0.0,95,0.00,,,0.00,0,Wunderground v.1.15,2014-09-17 08:08:00,
2014-09-17 04:13:00,42.4,41.1,30.08,East,84,0.0,0.0,95,0.00,,,0.00,0,Wunderground v.1.15,2014-09-17 08:13:00,
2014-09-17 04:18:00,42.4,41.3,30.08,East,84,0.0,0.0,96,0.00,,,0.00,0,Wunderground v.1.15,2014-09-17 08:18:00,
2014-09-17 04:23:00,42.7,41.6,30.08,East,84,0.0,0.0,96,0.00,,,0.00,0,Wunderground v.1.15,2014-09-17 08:23:00,
2014-09-17 04:29:00,42.5,41.4,30.08,East,84,0.0,0.0,96,0.00,,,0.00,0,Wunderground v.1.15,2014-09-17 08:29:00,
2014-09-17 04:34:00,42.7,41.6,30.08,East,84,0.0,0.0,96,0.00,,,0.00,0,Wunderground v.1.15,2014-09-17 08:34:00,
2014-09-17 04:39:00,42.6,41.5,30.08,East,84,0.0,0.0,96,0.00,,,0.00,0,Wunderground v.1.15,2014-09-17 08:39:00,
2014-09-17 04:44:00,42.4,41.3,30.08,East,84,0.0,0.0,96,0.00,,,0.00,0,Wunderground v.1.15,2014-09-17 08:44:00,
2014-09-17 04:48:00,42.2,40.9,30.08,East,84,0.0,0.0,95,0.00,,,0.00,0,Wunderground v.1.15,2014-09-17 08:48:00,
2014-09-17 04:53:00,42.0,40.7,30.08,East,84,0.0,0.0,95,0.00,,,0.00,0,Wunderground v.1.15,2014-09-17 08:53:00,
2014-09-17 04:59:00,41.8,40.7,30.08,East,84,0.0,0.0,96,0.00,,,0.00,0,Wunderground v.1.15,2014-09-17 08:59:00,
2014-09-17 05:09:00,41.7,40.6,30.08,East,84,0.0,0.0,96,0.00,,,0.00,0,Wunderground v.1.15,2014-09-17 09:09:00,
2014-09-17 05:14:00,41.6,40.5,30.08,East,84,0.0,0.0,96,0.00,,,0.00,0,Wunderground v.1.15,2014-09-17 09:14:00,
2014-09-17 05:19:00,41.5,40.4,30.08,East,84,0.0,0.0,96,0.00,,,0.00,0,Wunderground v.1.15,2014-09-17 09:19:00,
2014-09-17 05:23:00,41.4,40.3,30.08,East,84,0.0,0.0,96,0.00,,,0.01,0,Wunderground v.1.15,2014-09-17 09:23:00,
2014-09-17 05:28:00,41.2,40.1,30.08,East,84,0.0,0.0,96,0.00,,,0.01,0,Wunderground v.1.15,2014-09-17 09:28:00,
2014-09-17 05:33:00,41.1,40.0,30.08,East,84,0.0,0.0,96,0.00,,,0.01,0,Wunderground v.1.15,2014-09-17 09:33:00,
2014-09-17 05:38:00,41.0,39.9,30.08,East,84,0.0,0.0,96,0.00,,,0.01,0,Wunderground v.1.15,2014-09-17 09:38:00,
2014-09-17 05:44:00,41.1,40.0,30.08,East,84,0.0,0.0,96,0.00,,,0.01,0,Wunderground v.1.15,2014-09-17 09:44:00,
2014-09-17 05:48:00,41.0,39.9,30.07,East,84,0.0,0.0,96,0.00,,,0.01,0,Wunderground v.1.15,2014-09-17 09:48:00,
2014-09-17 05:54:00,41.0,39.9,30.07,East,84,0.0,0.0,96,0.00,,,0.01,0,Wunderground v.1.15,2014-09-17 09:54:00,
2014-09-17 05:59:00,40.8,39.7,30.08,East,84,0.0,0.0,96,0.00,,,0.01,0,Wunderground v.1.15,2014-09-17 09:59:00,
2014-09-17 06:03:00,40.7,39.6,30.08,East,84,0.0,0.0,96,0.00,,,0.01,0,Wunderground v.1.15,2014-09-17 10:03:00,
2014-09-17 06:08:00,40.6,39.5,30.08,East,84,0.0,0.0,96,0.00,,,0.01,0,Wunderground v.1.15,2014-09-17 10:08:00,
2014-09-17 06:13:00,40.4,39.4,30.08,East,84,0.0,0.0,96,0.00,,,0.01,0,Wunderground v.1.15,2014-09-17 10:13:00,
2014-09-17 06:18:00,40.3,39.3,30.08,East,84,0.0,0.0,96,0.00,,,0.01,0,Wunderground v.1.15,2014-09-17 10:18:00,
2014-09-17 06:23:00,40.4,39.4,30.08,East,84,0.0,0.0,96,0.00,,,0.01,0,Wunderground v.1.15,2014-09-17 10:23:00,
2014-09-17 06:29:00,40.2,39.2,30.08,East,84,0.0,0.0,96,0.00,,,0.01,0,Wunderground v.1.15,2014-09-17 10:29:00,
2014-09-17 06:34:00,40.1,39.1,30.08,East,84,0.0,0.0,96,0.00,,,0.01,0,Wunderground v.1.15,2014-09-17 10:34:00,
2014-09-17 06:39:00,39.9,38.9,30.08,East,84,0.0,0.0,96,0.00,,,0.01,0,Wunderground v.1.15,2014-09-17 10:39:00,
2014-09-17 06:43:00,39.8,38.8,30.08,East,84,0.0,0.0,96,0.00,,,0.01,0,Wunderground v.1.15,2014-09-17 10:43:00,
2014-09-17 06:48:00,39.7,38.7,30.08,East,84,0.0,0.0,96,0.00,,,0.01,0,Wunderground v.1.15,2014-09-17 10:48:00,
2014-09-17 06:53:00,39.7,38.7,30.08,East,84,0.0,0.0,96,0.00,,,0.01,0,Wunderground v.1.15,2014-09-17 10:53:00,
2014-09-17 06:59:00,39.6,38.6,30.08,East,84,0.0,0.0,96,0.00,,,0.01,0,Wunderground v.1.15,2014-09-17 10:59:00,
2014-09-17 07:04:00,39.5,38.5,30.08,East,84,0.0,0.0,96,0.00,,,0.01,0,Wunderground v.1.15,2014-09-17 11:04:00,
2014-09-17 07:09:00,39.5,38.5,30.08,East,84,0.0,0.0,96,0.00,,,0.01,0,Wunderground v.1.15,2014-09-17 11:09:00,
2014-09-17 07:14:00,39.3,38.3,30.08,East,84,0.0,0.0,96,0.00,,,0.01,0,Wunderground v.1.15,2014-09-17 11:14:00,
2014-09-17 07:18:00,39.3,38.3,30.08,East,84,0.0,0.0,96,0.00,,,0.01,5,Wunderground v.1.15,2014-09-17 11:18:00,
2014-09-17 07:23:00,39.3,38.3,30.08,East,84,0.0,0.0,96,0.00,,,0.01,7,Wunderground v.1.15,2014-09-17 11:23:00,
2014-09-17 07:28:00,39.3,38.3,30.08,East,84,0.0,0.0,96,0.00,,,0.01,11,Wunderground v.1.15,2014-09-17 11:28:00,
2014-09-17 07:33:00,39.3,38.3,30.08,East,84,0.0,0.0,96,0.00,,,0.01,12,Wunderground v.1.15,2014-09-17 11:33:00,
2014-09-17 07:38:00,39.3,38.3,30.09,East,84,0.0,0.0,96,0.00,,,0.01,14,Wunderground v.1.15,2014-09-17 11:38:00,
2014-09-17 07:43:00,39.3,38.3,30.08,East,84,0.0,0.0,96,0.00,,,0.01,16,Wunderground v.1.15,2014-09-17 11:43:00,
2014-09-17 07:49:00,39.3,38.3,30.08,East,84,0.0,0.0,96,0.00,,,0.01,18,Wunderground v.1.15,2014-09-17 11:49:00,
2014-09-17 07:54:00,39.4,38.4,30.08,East,84,0.0,0.0,96,0.00,,,0.01,28,Wunderground v.1.15,2014-09-17 11:54:00,
2014-09-17 07:59:00,39.5,38.5,30.09,East,84,0.0,0.0,96,0.00,,,0.01,81,Wunderground v.1.15,2014-09-17 11:59:00,
2014-09-17 08:03:00,39.9,39.1,30.09,East,84,0.0,0.0,97,0.00,,,0.01,93,Wunderground v.1.15,2014-09-17 12:03:00,
2014-09-17 08:13:00,41.3,40.5,30.09,East,84,0.0,0.0,97,0.00,,,0.01,127,Wunderground v.1.15,2014-09-17 12:13:00,
2014-09-17 08:18:00,42.5,41.7,30.09,East,84,0.0,0.0,97,0.00,,,0.01,144,Wunderground v.1.15,2014-09-17 12:18:00,
2014-09-17 08:23:00,43.6,42.8,30.09,East,84,0.0,0.0,97,0.00,,,0.01,162,Wunderground v.1.15,2014-09-17 12:23:00,
2014-09-17 08:29:00,44.4,43.6,30.09,East,84,0.0,0.0,97,0.00,,,0.01,179,Wunderground v.1.15,2014-09-17 12:29:00,
2014-09-17 08:34:00,45.2,44.7,30.09,ENE,62,0.0,0.0,98,0.00,,,0.01,195,Wunderground v.1.15,2014-09-17 12:34:00,
2014-09-17 08:38:00,45.9,45.4,30.09,NW,308,0.0,0.0,98,0.00,,,0.01,209,Wunderground v.1.15,2014-09-17 12:38:00,
2014-09-17 08:43:00,46.5,46.0,30.09,West,279,0.0,0.0,98,0.00,,,0.01,223,Wunderground v.1.15,2014-09-17 12:43:00,
2014-09-17 08:48:00,46.9,46.4,30.09,West,279,0.0,0.0,98,0.00,,,0.01,234,Wunderground v.1.15,2014-09-17 12:48:00,
2014-09-17 08:53:00,47.3,46.5,30.09,West,279,0.0,0.0,97,0.00,,,0.01,251,Wunderground v.1.15,2014-09-17 12:53:00,
2014-09-17 08:59:00,47.7,46.9,30.09,West,279,0.0,0.0,97,0.00,,,0.01,265,Wunderground v.1.15,2014-09-17 12:59:00,
2014-09-17 09:04:00,47.9,47.1,30.09,West,279,0.0,0.0,97,0.00,,,0.01,279,Wunderground v.1.15,2014-09-17 13:04:00,
2014-09-17 09:09:00,48.2,47.4,30.09,West,279,1.0,1.0,97,0.00,,,0.01,294,Wunderground v.1.15,2014-09-17 13:09:00,
2014-09-17 09:13:00,48.5,47.7,30.09,West,279,1.0,1.0,97,0.00,,,0.01,306,Wunderground v.1.15,2014-09-17 13:13:00,
2014-09-17 09:19:00,49.0,48.2,30.09,West,279,0.0,1.0,97,0.00,,,0.01,323,Wunderground v.1.15,2014-09-17 13:19:00,
2014-09-17 09:23:00,49.4,48.3,30.09,West,279,1.0,2.0,96,0.00,,,0.01,353,Wunderground v.1.15,2014-09-17 13:23:00,
2014-09-17 09:28:00,49.8,48.4,30.08,West,279,1.0,1.0,95,0.00,,,0.01,369,Wunderground v.1.15,2014-09-17 13:28:00,
2014-09-17 09:33:00,50.4,48.7,30.08,West,279,1.0,1.0,94,0.00,,,0.01,383,Wunderground v.1.15,2014-09-17 13:33:00,
2014-09-17 09:38:00,50.9,48.9,30.08,West,279,0.0,0.0,93,0.00,,,0.01,397,Wunderground v.1.15,2014-09-17 13:38:00,
2014-09-17 09:44:00,51.4,48.9,30.08,West,279,1.0,2.0,91,0.00,,,0.01,408,Wunderground v.1.15,2014-09-17 13:44:00,
2014-09-17 09:54:00,52.3,48.2,30.08,West,279,2.0,3.0,86,0.00,,,0.01,438,Wunderground v.1.15,2014-09-17 13:54:00,
2014-09-17 09:59:00,53.0,48.9,30.08,West,275,2.0,2.0,86,0.00,,,0.01,450,Wunderground v.1.15,2014-09-17 13:59:00,
2014-09-17 10:03:00,53.5,48.8,30.08,West,275,2.0,2.0,84,0.00,,,0.01,464,Wunderground v.1.15,2014-09-17 14:03:00,
2014-09-17 10:08:00,53.8,48.4,30.08,West,275,2.0,4.0,82,0.00,,,0.01,478,Wunderground v.1.15,2014-09-17 14:08:00,
2014-09-17 10:13:00,54.2,48.5,30.08,WNW,302,2.0,4.0,81,0.00,,,0.01,487,Wunderground v.1.15,2014-09-17 14:13:00,
2014-09-17 10:19:00,54.6,48.6,30.07,WNW,302,2.0,2.0,80,0.00,,,0.01,501,Wunderground v.1.15,2014-09-17 14:19:00,
2014-09-17 10:23:00,55.0,49.3,30.07,WSW,257,2.0,2.0,81,0.00,,,0.01,515,Wunderground v.1.15,2014-09-17 14:23:00,
2014-09-17 10:29:00,55.3,48.9,30.07,NW,305,2.0,2.0,79,0.00,,,0.01,526,Wunderground v.1.15,2014-09-17 14:29:00,
2014-09-17 10:34:00,55.7,49.3,30.07,NW,305,2.0,2.0,79,0.00,,,0.01,538,Wunderground v.1.15,2014-09-17 14:34:00,
2014-09-17 10:38:00,56.0,48.5,30.07,West,267,1.0,1.0,76,0.00,,,0.01,552,Wunderground v.1.15,2014-09-17 14:38:00,
2014-09-17 10:43:00,56.2,48.4,30.06,WNW,298,1.0,1.0,75,0.00,,,0.01,561,Wunderground v.1.15,2014-09-17 14:43:00,
2014-09-17 10:48:00,56.5,49.0,30.06,WNW,289,1.0,4.0,76,0.00,,,0.01,571,Wunderground v.1.15,2014-09-17 14:48:00,
2014-09-17 10:53:00,56.6,48.4,30.06,WNW,284,2.0,4.0,74,0.00,,,0.01,584,Wunderground v.1.15,2014-09-17 14:53:00,
2014-09-17 10:59:00,57.2,47.5,30.06,WNW,300,2.0,4.0,70,0.00,,,0.01,594,Wunderground v.1.15,2014-09-17 14:59:00,
2014-09-17 11:04:00,57.5,48.5,30.06,NW,304,2.0,4.0,72,0.00,,,0.01,605,Wunderground v.1.15,2014-09-17 15:04:00,
2014-09-17 11:08:00,57.7,48.0,30.06,West,280,2.0,2.0,70,0.00,,,0.01,615,Wunderground v.1.15,2014-09-17 15:08:00,
2014-09-17 11:13:00,58.1,48.7,30.05,WSW,252,1.0,5.0,71,0.00,,,0.01,626,Wunderground v.1.15,2014-09-17 15:13:00,
2014-09-17 11:18:00,58.5,48.4,30.05,West,267,2.0,5.0,69,0.00,,,0.01,635,Wunderground v.1.15,2014-09-17 15:18:00,
2014-09-17 11:23:00,58.7,47.4,30.05,WSW,240,3.0,5.0,66,0.00,,,0.01,642,Wunderground v.1.15,2014-09-17 15:23:00,
2014-09-17 11:28:00,59.0,48.1,30.05,West,269,2.0,3.0,67,0.00,,,0.01,650,Wunderground v.1.15,2014-09-17 15:28:00,
2014-09-17 11:33:00,59.1,48.5,30.05,West,269,2.0,3.0,68,0.00,,,0.01,659,Wunderground v.1.15,2014-09-17 15:33:00,
2014-09-17 11:39:00,59.4,48.4,30.05,West,266,2.0,2.0,67,0.00,,,0.01,666,Wunderground v.1.15,2014-09-17 15:39:00,
2014-09-17 11:44:00,59.6,49.0,30.04,West,265,1.0,4.0,68,0.00,,,0.01,675,Wunderground v.1.15,2014-09-17 15:44:00,
2014-09-17 11:48:00,60.1,49.5,30.04,NW,306,2.0,4.0,68,0.00,,,0.01,682,Wunderground v.1.15,2014-09-17 15:48:00,
2014-09-17 11:53:00,60.2,48.8,30.04,WNW,297,2.0,4.0,66,0.00,,,0.01,689,Wunderground v.1.15,2014-09-17 15:53:00,
2014-09-17 11:59:00,60.1,48.3,30.04,NNW,344,3.0,3.0,65,0.00,,,0.01,696,Wunderground v.1.15,2014-09-17 15:59:00,
2014-09-17 12:08:00,60.6,48.8,30.04,NNW,339,2.0,2.0,65,0.00,,,0.01,705,Wunderground v.1.15,2014-09-17 16:08:00,
2014-09-17 12:14:00,60.9,48.6,30.03,WSW,254,2.0,3.0,64,0.00,,,0.01,707,Wunderground v.1.15,2014-09-17 16:14:00,
2014-09-17 12:19:00,61.2,49.3,30.03,NNW,331,2.0,2.0,65,0.00,,,0.01,693,Wunderground v.1.15,2014-09-17 16:19:00,
2014-09-17 12:23:00,61.0,48.3,30.03,NNW,331,3.0,3.0,63,0.00,,,0.01,675,Wunderground v.1.15,2014-09-17 16:23:00,
2014-09-17 12:28:00,61.3,49.0,30.03,NNW,331,1.0,1.0,64,0.00,,,0.01,654,Wunderground v.1.15,2014-09-17 16:28:00,
2014-09-17 12:33:00,61.8,49.1,30.03,NNW,331,0.0,1.0,63,0.00,,,0.01,631,Wunderground v.1.15,2014-09-17 16:33:00,
2014-09-17 12:39:00,61.8,48.2,30.03,WNW,289,2.0,2.0,61,0.00,,,0.01,621,Wunderground v.1.15,2014-09-17 16:39:00,
2014-09-17 12:43:00,62.0,49.7,30.03,WNW,287,2.0,2.0,64,0.00,,,0.01,621,Wunderground v.1.15,2014-09-17 16:43:00,
2014-09-17 12:49:00,62.3,48.7,30.03,WNW,294,1.0,3.0,61,0.00,,,0.01,633,Wunderground v.1.15,2014-09-17 16:49:00,
2014-09-17 12:54:00,62.2,48.1,30.02,NNW,344,2.0,3.0,60,0.00,,,0.01,659,Wunderground v.1.15,2014-09-17 16:54:00,
2014-09-17 12:59:00,62.3,48.7,30.02,WSW,255,1.0,4.0,61,0.00,,,0.01,689,Wunderground v.1.15,2014-09-17 16:59:00,
2014-09-17 13:08:00,63.0,49.8,30.02,SSW,192,2.0,2.0,62,0.00,,,0.01,733,Wunderground v.1.15,2014-09-17 17:08:00,
2014-09-17 13:13:00,63.2,49.5,30.02,WSW,250,1.0,3.0,61,0.00,,,0.01,747,Wunderground v.1.15,2014-09-17 17:13:00,
2014-09-17 13:18:00,63.2,48.6,30.02,WSW,257,1.0,1.0,59,0.00,,,0.01,751,Wunderground v.1.15,2014-09-17 17:18:00,
2014-09-17 13:24:00,63.4,49.3,30.02,West,261,2.0,2.0,60,0.00,,,0.01,749,Wunderground v.1.15,2014-09-17 17:24:00,
2014-09-17 13:29:00,63.7,48.6,30.02,WSW,254,2.0,5.0,58,0.00,,,0.01,758,Wunderground v.1.15,2014-09-17 17:29:00,
2014-09-17 13:34:00,63.9,49.7,30.01,WNW,294,2.0,5.0,60,0.00,,,0.01,754,Wunderground v.1.15,2014-09-17 17:34:00,
2014-09-17 13:43:00,63.9,48.8,30.01,NNW,329,2.0,2.0,58,0.00,,,0.01,759,Wunderground v.1.15,2014-09-17 17:43:00,
2014-09-17 13:48:00,64.1,48.5,30.01,WNW,295,3.0,5.0,57,0.00,,,0.01,765,Wunderground v.1.15,2014-09-17 17:48:00,
2014-09-17 13:53:00,64.0,48.9,30.01,WNW,288,3.0,6.0,58,0.00,,,0.01,754,Wunderground v.1.15,2014-09-17 17:53:00,
2014-09-17 13:59:00,64.1,48.1,30.00,West,269,3.0,3.0,56,0.00,,,0.01,763,Wunderground v.1.15,2014-09-17 17:59:00,
2014-09-17 14:04:00,64.2,48.2,30.01,WSW,256,3.0,3.0,56,0.00,,,0.01,770,Wunderground v.1.15,2014-09-17 18:04:00,
2014-09-17 14:08:00,64.3,48.3,30.00,West,261,2.0,2.0,56,0.00,,,0.01,766,Wunderground v.1.15,2014-09-17 18:08:00,
2014-09-17 14:13:00,64.8,48.7,30.00,WNW,283,1.0,5.0,56,0.00,,,0.01,766,Wunderground v.1.15,2014-09-17 18:13:00,
2014-09-17 14:18:00,64.9,47.9,30.00,SW,227,2.0,2.0,54,0.00,,,0.01,798,Wunderground v.1.15,2014-09-17 18:18:00,
2014-09-17 14:23:00,65.2,48.1,30.00,West,263,1.0,2.0,54,0.00,,,0.01,777,Wunderground v.1.15,2014-09-17 18:23:00,
2014-09-17 14:28:00,65.3,47.7,30.00,WSW,242,1.0,1.0,53,0.00,,,0.01,754,Wunderground v.1.15,2014-09-17 18:28:00,
2014-09-17 14:34:00,65.7,49.1,30.00,SW,233,1.0,4.0,55,0.00,,,0.01,752,Wunderground v.1.15,2014-09-17 18:34:00,
2014-09-17 14:39:00,66.1,49.0,30.00,North,9,2.0,4.0,54,0.00,,,0.01,768,Wunderground v.1.15,2014-09-17 18:39:00,
2014-09-17 14:44:00,66.0,48.9,30.00,NNW,327,2.0,6.0,54,0.00,,,0.01,761,Wunderground v.1.15,2014-09-17 18:44:00,
2014-09-17 14:48:00,65.9,49.3,30.00,West,260,4.0,4.0,55,0.00,,,0.01,731,Wunderground v.1.15,2014-09-17 18:48:00,
2014-09-17 14:53:00,65.9,47.8,30.00,WSW,246,4.0,4.0,52,0.00,,,0.01,737,Wunderground v.1.15,2014-09-17 18:53:00,
2014-09-17 14:59:00,65.5,47.9,30.00,WSW,253,4.0,5.0,53,0.00,,,0.01,742,Wunderground v.1.15,2014-09-17 18:59:00,
2014-09-17 15:03:00,65.7,48.1,30.00,WSW,247,3.0,5.0,53,0.00,,,0.01,691,Wunderground v.1.15,2014-09-17 19:03:00,
2014-09-17 15:08:00,66.1,48.5,30.00,West,260,2.0,2.0,53,0.00,,,0.01,587,Wunderground v.1.15,2014-09-17 19:08:00,
2014-09-17 15:14:00,66.0,48.9,30.00,WNW,294,2.0,4.0,54,0.00,,,0.01,195,Wunderground v.1.15,2014-09-17 19:14:00,
2014-09-17 15:19:00,65.7,47.6,30.00,NW,308,2.0,2.0,52,0.00,,,0.01,591,Wunderground v.1.15,2014-09-17 19:19:00,
2014-09-17 15:24:00,65.6,46.5,30.00,NW,309,2.0,2.0,50,0.00,,,0.01,564,Wunderground v.1.15,2014-09-17 19:24:00,
2014-09-17 15:28:00,65.7,47.6,30.00,West,271,2.0,4.0,52,0.00,,,0.01,534,Wunderground v.1.15,2014-09-17 19:28:00,
2014-09-17 15:33:00,66.1,48.0,30.00,SW,227,3.0,4.0,52,0.00,,,0.01,547,Wunderground v.1.15,2014-09-17 19:33:00,
2014-09-17 15:38:00,66.3,48.1,30.00,SSW,198,3.0,4.0,52,0.00,,,0.01,538,Wunderground v.1.15,2014-09-17 19:38:00,
2014-09-17 15:43:00,66.7,46.9,29.99,SSW,213,2.0,4.0,49,0.00,,,0.01,508,Wunderground v.1.15,2014-09-17 19:43:00,
2014-09-17 15:48:00,67.2,48.5,30.00,NW,319,2.0,5.0,51,0.00,,,0.01,517,Wunderground v.1.15,2014-09-17 19:48:00,
2014-09-17 15:54:00,67.0,46.7,30.00,West,261,3.0,5.0,48,0.00,,,0.01,494,Wunderground v.1.15,2014-09-17 19:54:00,
2014-09-17 15:59:00,66.7,46.4,30.00,West,261,4.0,4.0,48,0.00,,,0.01,475,Wunderground v.1.15,2014-09-17 19:59:00,
2014-09-17 16:08:00,66.8,47.6,30.00,South,173,2.0,5.0,50,0.00,,,0.01,519,Wunderground v.1.15,2014-09-17 20:08:00,
2014-09-17 16:13:00,66.8,47.6,29.99,WSW,242,2.0,5.0,50,0.00,,,0.01,512,Wunderground v.1.15,2014-09-17 20:13:00,
2014-09-17 16:18:00,66.9,47.1,29.99,West,269,3.0,4.0,49,0.00,,,0.01,452,Wunderground v.1.15,2014-09-17 20:18:00,
2014-09-17 16:23:00,66.4,46.1,29.99,West,259,2.0,4.0,48,0.00,,,0.01,113,Wunderground v.1.15,2014-09-17 20:23:00,
2014-09-17 16:28:00,66.0,47.3,30.00,WNW,292,1.0,1.0,51,0.00,,,0.01,487,Wunderground v.1.15,2014-09-17 20:28:00,
2014-09-17 16:34:00,65.6,45.9,29.99,NW,313,1.0,3.0,49,0.00,,,0.01,111,Wunderground v.1.15,2014-09-17 20:34:00,
2014-09-17 16:39:00,65.7,47.1,29.99,NW,313,1.0,1.0,51,0.00,,,0.01,519,Wunderground v.1.15,2014-09-17 20:39:00,
2014-09-17 16:43:00,66.0,47.9,29.99,NNW,343,0.0,1.0,52,0.00,,,0.01,132,Wunderground v.1.15,2014-09-17 20:43:00,
2014-09-17 16:48:00,66.0,47.9,29.99,West,280,2.0,2.0,52,0.00,,,0.01,510,Wunderground v.1.15,2014-09-17 20:48:00,
2014-09-17 16:53:00,66.1,46.9,29.99,WNW,303,2.0,2.0,50,0.00,,,0.01,153,Wunderground v.1.15,2014-09-17 20:53:00,
2014-09-17 16:59:00,65.9,46.7,29.99,WNW,299,1.0,1.0,50,0.00,,,0.01,114,Wunderground v.1.15,2014-09-17 20:59:00,
2014-09-17 17:03:00,65.8,46.6,29.99,WNW,289,1.0,1.0,50,0.00,,,0.01,111,Wunderground v.1.15,2014-09-17 21:03:00,
2014-09-17 17:08:00,65.9,47.3,29.99,WNW,289,1.0,4.0,51,0.00,,,0.01,427,Wunderground v.1.15,2014-09-17 21:08:00,
2014-09-17 17:14:00,66.0,47.3,29.99,WNW,292,2.0,4.0,51,0.00,,,0.01,403,Wunderground v.1.15,2014-09-17 21:14:00,
2014-09-17 17:19:00,66.1,46.9,29.99,WNW,298,2.0,2.0,50,0.00,,,0.01,388,Wunderground v.1.15,2014-09-17 21:19:00,
2014-09-17 17:24:00,66.7,48.5,29.99,WNW,292,1.0,4.0,52,0.00,,,0.01,367,Wunderground v.1.15,2014-09-17 21:24:00,
2014-09-17 17:28:00,66.7,46.4,29.99,WSW,257,2.0,4.0,48,0.00,,,0.01,362,Wunderground v.1.15,2014-09-17 21:28:00,
2014-09-17 17:33:00,66.6,47.9,29.99,WNW,288,3.0,4.0,51,0.00,,,0.01,350,Wunderground v.1.15,2014-09-17 21:33:00,
2014-09-17 17:38:00,66.3,46.6,29.99,NNW,342,3.0,3.0,49,0.00,,,0.01,93,Wunderground v.1.15,2014-09-17 21:38:00,
2014-09-17 17:43:00,65.9,47.8,29.99,WNW,293,3.0,3.0,52,0.00,,,0.01,334,Wunderground v.1.15,2014-09-17 21:43:00,
2014-09-17 17:48:00,66.1,46.9,29.99,WNW,293,1.0,1.0,50,0.00,,,0.01,285,Wunderground v.1.15,2014-09-17 21:48:00,
2014-09-17 17:54:00,66.5,46.2,29.99,WNW,293,0.0,1.0,48,0.00,,,0.01,288,Wunderground v.1.15,2014-09-17 21:54:00,
2014-09-17 17:59:00,66.7,48.0,29.99,WNW,293,0.0,0.0,51,0.00,,,0.01,125,Wunderground v.1.15,2014-09-17 21:59:00,
2014-09-17 18:04:00,66.6,48.4,29.99,WNW,293,0.0,0.0,52,0.00,,,0.01,292,Wunderground v.1.15,2014-09-17 22:04:00,
2014-09-17 18:08:00,66.7,48.0,29.99,WNW,296,1.0,3.0,51,0.00,,,0.01,283,Wunderground v.1.15,2014-09-17 22:08:00,
2014-09-17 18:13:00,66.3,46.0,29.99,WNW,296,1.0,3.0,48,0.00,,,0.01,105,Wunderground v.1.15,2014-09-17 22:13:00,